sensor_id;sensor_type;location;lat;lon;timestamp;P1;durP1;ratioP1;P2;durP2;ratioP2
52848;SDS011;38714;53.180;5.812;2024-01-30T00:02:14;8.50;;;5.30;;
52848;SDS011;38714;53.180;5.812;2024-01-30T00:04:40;10.70;;;5.95;;
52848;SDS011;38714;53.180;5.812;2024-01-30T00:07:05;12.18;;;6.53;;
52848;SDS011;38714;53.180;5.812;2024-01-30T00:09:31;7.03;;;5.70;;
52848;SDS011;38714;53.180;5.812;2024-01-30T00:11:56;11.65;;;5.75;;
52848;SDS011;38714;53.180;5.812;2024-01-30T00:14:22;9.82;;;5.90;;
52848;SDS011;38714;53.180;5.812;2024-01-30T00:16:48;7.60;;;5.80;;
52848;SDS011;38714;53.180;5.812;2024-01-30T00:19:13;5.88;;;5.10;;
52848;SDS011;38714;53.180;5.812;2024-01-30T00:21:39;7.22;;;5.22;;
52848;SDS011;38714;53.180;5.812;2024-01-30T00:24:05;9.95;;;7.75;;
52848;SDS011;38714;53.180;5.812;2024-01-30T00:26:30;9.18;;;5.63;;
52848;SDS011;38714;53.180;5.812;2024-01-30T00:28:56;14.02;;;6.28;;
52848;SDS011;38714;53.180;5.812;2024-01-30T00:31:21;9.60;;;6.05;;
52848;SDS011;38714;53.180;5.812;2024-01-30T00:33:47;9.95;;;5.97;;
52848;SDS011;38714;53.180;5.812;2024-01-30T00:36:13;7.55;;;6.78;;
52848;SDS011;38714;53.180;5.812;2024-01-30T00:38:38;9.95;;;7.82;;
52848;SDS011;38714;53.180;5.812;2024-01-30T00:41:05;7.35;;;6.00;;
52848;SDS011;38714;53.180;5.812;2024-01-30T00:43:32;10.20;;;6.00;;
52848;SDS011;38714;53.180;5.812;2024-01-30T00:45:58;11.25;;;8.93;;
52848;SDS011;38714;53.180;5.812;2024-01-30T00:48:24;12.07;;;6.40;;
52848;SDS011;38714;53.180;5.812;2024-01-30T00:50:50;12.38;;;6.65;;
52848;SDS011;38714;53.180;5.812;2024-01-30T00:53:15;10.70;;;5.85;;
52848;SDS011;38714;53.180;5.812;2024-01-30T00:55:41;9.20;;;7.45;;
52848;SDS011;38714;53.180;5.812;2024-01-30T00:58:06;6.28;;;4.93;;
52848;SDS011;38714;53.180;5.812;2024-01-30T01:00:32;7.15;;;6.55;;
52848;SDS011;38714;53.180;5.812;2024-01-30T01:02:58;17.77;;;7.05;;
52848;SDS011;38714;53.180;5.812;2024-01-30T01:05:24;9.55;;;5.93;;
52848;SDS011;38714;53.180;5.812;2024-01-30T01:07:50;8.32;;;5.00;;
52848;SDS011;38714;53.180;5.812;2024-01-30T01:10:16;8.77;;;6.20;;
52848;SDS011;38714;53.180;5.812;2024-01-30T01:12:43;8.95;;;7.07;;
52848;SDS011;38714;53.180;5.812;2024-01-30T01:15:09;5.65;;;4.90;;
52848;SDS011;38714;53.180;5.812;2024-01-30T01:17:35;14.30;;;7.97;;
52848;SDS011;38714;53.180;5.812;2024-01-30T01:20:01;8.32;;;6.50;;
52848;SDS011;38714;53.180;5.812;2024-01-30T01:22:28;7.43;;;6.05;;
52848;SDS011;38714;53.180;5.812;2024-01-30T01:24:55;10.93;;;5.60;;
52848;SDS011;38714;53.180;5.812;2024-01-30T01:27:20;11.52;;;6.07;;
52848;SDS011;38714;53.180;5.812;2024-01-30T01:29:46;9.15;;;6.03;;
52848;SDS011;38714;53.180;5.812;2024-01-30T01:32:11;7.53;;;6.13;;
52848;SDS011;38714;53.180;5.812;2024-01-30T01:34:37;6.90;;;5.65;;
52848;SDS011;38714;53.180;5.812;2024-01-30T01:37:03;7.75;;;5.05;;
52848;SDS011;38714;53.180;5.812;2024-01-30T01:39:29;8.40;;;5.28;;
52848;SDS011;38714;53.180;5.812;2024-01-30T01:41:54;11.88;;;6.88;;
52848;SDS011;38714;53.180;5.812;2024-01-30T01:44:20;11.68;;;5.82;;
52848;SDS011;38714;53.180;5.812;2024-01-30T01:46:45;8.52;;;5.68;;
52848;SDS011;38714;53.180;5.812;2024-01-30T01:49:12;8.38;;;6.45;;
52848;SDS011;38714;53.180;5.812;2024-01-30T01:51:39;10.88;;;5.28;;
52848;SDS011;38714;53.180;5.812;2024-01-30T01:54:06;9.75;;;6.65;;
52848;SDS011;38714;53.180;5.812;2024-01-30T01:56:32;11.93;;;6.93;;
52848;SDS011;38714;53.180;5.812;2024-01-30T01:59:08;9.70;;;6.70;;
52848;SDS011;38714;53.180;5.812;2024-01-30T02:01:34;8.80;;;7.05;;
52848;SDS011;38714;53.180;5.812;2024-01-30T02:04:02;13.30;;;7.78;;
52848;SDS011;38714;53.180;5.812;2024-01-30T02:06:27;10.85;;;7.28;;
52848;SDS011;38714;53.180;5.812;2024-01-30T02:08:53;13.15;;;6.53;;
52848;SDS011;38714;53.180;5.812;2024-01-30T02:11:19;16.05;;;7.20;;
52848;SDS011;38714;53.180;5.812;2024-01-30T02:13:45;6.82;;;5.72;;
52848;SDS011;38714;53.180;5.812;2024-01-30T02:16:11;12.13;;;6.45;;
52848;SDS011;38714;53.180;5.812;2024-01-30T02:18:37;13.60;;;6.68;;
52848;SDS011;38714;53.180;5.812;2024-01-30T02:21:07;11.07;;;7.28;;
52848;SDS011;38714;53.180;5.812;2024-01-30T02:23:32;10.25;;;7.43;;
52848;SDS011;38714;53.180;5.812;2024-01-30T02:25:59;9.25;;;5.55;;
52848;SDS011;38714;53.180;5.812;2024-01-30T02:28:25;8.98;;;6.18;;
52848;SDS011;38714;53.180;5.812;2024-01-30T02:30:52;13.35;;;6.55;;
52848;SDS011;38714;53.180;5.812;2024-01-30T02:33:17;13.45;;;7.22;;
52848;SDS011;38714;53.180;5.812;2024-01-30T02:35:43;13.95;;;7.10;;
52848;SDS011;38714;53.180;5.812;2024-01-30T02:38:09;14.13;;;8.50;;
52848;SDS011;38714;53.180;5.812;2024-01-30T02:40:34;9.68;;;7.35;;
52848;SDS011;38714;53.180;5.812;2024-01-30T02:43:01;11.80;;;7.38;;
52848;SDS011;38714;53.180;5.812;2024-01-30T02:45:28;9.40;;;6.70;;
52848;SDS011;38714;53.180;5.812;2024-01-30T02:47:53;10.60;;;7.05;;
52848;SDS011;38714;53.180;5.812;2024-01-30T02:50:19;11.52;;;7.60;;
52848;SDS011;38714;53.180;5.812;2024-01-30T02:52:44;8.25;;;5.82;;
52848;SDS011;38714;53.180;5.812;2024-01-30T02:55:10;12.73;;;8.45;;
52848;SDS011;38714;53.180;5.812;2024-01-30T02:57:36;13.05;;;7.97;;
52848;SDS011;38714;53.180;5.812;2024-01-30T03:00:02;7.75;;;6.30;;
52848;SDS011;38714;53.180;5.812;2024-01-30T03:02:30;10.10;;;7.57;;
52848;SDS011;38714;53.180;5.812;2024-01-30T03:04:56;10.30;;;7.32;;
52848;SDS011;38714;53.180;5.812;2024-01-30T03:07:21;8.50;;;7.53;;
52848;SDS011;38714;53.180;5.812;2024-01-30T03:09:47;9.68;;;7.03;;
52848;SDS011;38714;53.180;5.812;2024-01-30T03:12:13;10.10;;;6.85;;
52848;SDS011;38714;53.180;5.812;2024-01-30T03:14:39;9.80;;;7.50;;
52848;SDS011;38714;53.180;5.812;2024-01-30T03:17:04;11.00;;;6.90;;
52848;SDS011;38714;53.180;5.812;2024-01-30T03:19:30;10.80;;;8.15;;
52848;SDS011;38714;53.180;5.812;2024-01-30T03:21:55;8.40;;;6.55;;
52848;SDS011;38714;53.180;5.812;2024-01-30T03:24:21;12.45;;;7.15;;
52848;SDS011;38714;53.180;5.812;2024-01-30T03:26:46;12.55;;;7.38;;
52848;SDS011;38714;53.180;5.812;2024-01-30T03:29:12;12.50;;;6.50;;
52848;SDS011;38714;53.180;5.812;2024-01-30T03:31:38;9.05;;;5.90;;
52848;SDS011;38714;53.180;5.812;2024-01-30T03:34:04;14.57;;;7.40;;
52848;SDS011;38714;53.180;5.812;2024-01-30T03:36:30;9.43;;;6.07;;
52848;SDS011;38714;53.180;5.812;2024-01-30T03:38:58;9.15;;;5.93;;
52848;SDS011;38714;53.180;5.812;2024-01-30T03:41:23;11.30;;;7.28;;
52848;SDS011;38714;53.180;5.812;2024-01-30T03:43:49;6.88;;;5.43;;
52848;SDS011;38714;53.180;5.812;2024-01-30T03:46:15;9.98;;;5.75;;
52848;SDS011;38714;53.180;5.812;2024-01-30T03:48:41;7.32;;;6.18;;
52848;SDS011;38714;53.180;5.812;2024-01-30T03:51:06;10.40;;;5.07;;
52848;SDS011;38714;53.180;5.812;2024-01-30T03:53:32;14.38;;;6.45;;
52848;SDS011;38714;53.180;5.812;2024-01-30T03:55:58;11.20;;;6.68;;
52848;SDS011;38714;53.180;5.812;2024-01-30T03:58:23;12.88;;;7.00;;
52848;SDS011;38714;53.180;5.812;2024-01-30T04:00:49;9.88;;;5.75;;
52848;SDS011;38714;53.180;5.812;2024-01-30T04:03:15;8.40;;;6.45;;
52848;SDS011;38714;53.180;5.812;2024-01-30T04:05:40;6.65;;;5.55;;
52848;SDS011;38714;53.180;5.812;2024-01-30T04:08:06;9.50;;;6.30;;
52848;SDS011;38714;53.180;5.812;2024-01-30T04:10:32;7.35;;;6.13;;
52848;SDS011;38714;53.180;5.812;2024-01-30T04:12:58;15.95;;;6.10;;
52848;SDS011;38714;53.180;5.812;2024-01-30T04:15:24;7.53;;;5.93;;
52848;SDS011;38714;53.180;5.812;2024-01-30T04:17:50;13.30;;;7.03;;
52848;SDS011;38714;53.180;5.812;2024-01-30T04:20:16;10.15;;;6.85;;
52848;SDS011;38714;53.180;5.812;2024-01-30T04:22:45;12.38;;;5.28;;
52848;SDS011;38714;53.180;5.812;2024-01-30T04:25:14;10.68;;;5.85;;
52848;SDS011;38714;53.180;5.812;2024-01-30T04:27:39;9.35;;;5.47;;
52848;SDS011;38714;53.180;5.812;2024-01-30T04:30:05;11.40;;;6.45;;
52848;SDS011;38714;53.180;5.812;2024-01-30T04:32:32;7.00;;;5.88;;
52848;SDS011;38714;53.180;5.812;2024-01-30T04:34:57;12.20;;;7.13;;
52848;SDS011;38714;53.180;5.812;2024-01-30T04:37:23;7.82;;;5.90;;
52848;SDS011;38714;53.180;5.812;2024-01-30T04:39:49;6.57;;;5.95;;
52848;SDS011;38714;53.180;5.812;2024-01-30T04:42:16;8.50;;;5.97;;
52848;SDS011;38714;53.180;5.812;2024-01-30T04:44:41;13.27;;;6.32;;
52848;SDS011;38714;53.180;5.812;2024-01-30T04:47:07;8.40;;;5.88;;
52848;SDS011;38714;53.180;5.812;2024-01-30T04:49:35;12.00;;;6.43;;
52848;SDS011;38714;53.180;5.812;2024-01-30T04:52:01;10.43;;;6.22;;
52848;SDS011;38714;53.180;5.812;2024-01-30T04:54:27;10.02;;;6.47;;
52848;SDS011;38714;53.180;5.812;2024-01-30T04:56:52;10.82;;;6.95;;
52848;SDS011;38714;53.180;5.812;2024-01-30T04:59:18;8.68;;;6.35;;
52848;SDS011;38714;53.180;5.812;2024-01-30T05:01:43;15.52;;;7.90;;
52848;SDS011;38714;53.180;5.812;2024-01-30T05:04:09;14.13;;;7.35;;
52848;SDS011;38714;53.180;5.812;2024-01-30T05:06:35;8.73;;;5.65;;
52848;SDS011;38714;53.180;5.812;2024-01-30T05:09:00;11.05;;;5.80;;
52848;SDS011;38714;53.180;5.812;2024-01-30T05:11:26;8.70;;;7.22;;
52848;SDS011;38714;53.180;5.812;2024-01-30T05:13:51;12.45;;;6.57;;
52848;SDS011;38714;53.180;5.812;2024-01-30T05:16:17;7.65;;;6.18;;
52848;SDS011;38714;53.180;5.812;2024-01-30T05:18:43;8.75;;;4.90;;
52848;SDS011;38714;53.180;5.812;2024-01-30T05:21:09;10.05;;;5.45;;
52848;SDS011;38714;53.180;5.812;2024-01-30T05:23:35;9.18;;;6.40;;
52848;SDS011;38714;53.180;5.812;2024-01-30T05:26:01;8.95;;;6.00;;
52848;SDS011;38714;53.180;5.812;2024-01-30T05:28:27;10.05;;;5.88;;
52848;SDS011;38714;53.180;5.812;2024-01-30T05:30:56;10.27;;;4.78;;
52848;SDS011;38714;53.180;5.812;2024-01-30T05:33:21;17.08;;;6.63;;
52848;SDS011;38714;53.180;5.812;2024-01-30T05:35:47;10.68;;;4.32;;
52848;SDS011;38714;53.180;5.812;2024-01-30T05:38:13;10.05;;;5.90;;
52848;SDS011;38714;53.180;5.812;2024-01-30T05:40:41;8.80;;;5.53;;
52848;SDS011;38714;53.180;5.812;2024-01-30T05:43:06;10.68;;;5.88;;
52848;SDS011;38714;53.180;5.812;2024-01-30T05:45:32;9.95;;;6.93;;
52848;SDS011;38714;53.180;5.812;2024-01-30T05:48:00;8.57;;;6.55;;
52848;SDS011;38714;53.180;5.812;2024-01-30T05:50:25;11.07;;;5.75;;
52848;SDS011;38714;53.180;5.812;2024-01-30T05:52:52;13.80;;;5.88;;
52848;SDS011;38714;53.180;5.812;2024-01-30T05:55:17;9.48;;;5.78;;
52848;SDS011;38714;53.180;5.812;2024-01-30T05:57:43;8.68;;;5.82;;
52848;SDS011;38714;53.180;5.812;2024-01-30T06:00:09;10.10;;;6.40;;
52848;SDS011;38714;53.180;5.812;2024-01-30T06:02:34;10.55;;;5.90;;
52848;SDS011;38714;53.180;5.812;2024-01-30T06:05:00;10.60;;;5.82;;
52848;SDS011;38714;53.180;5.812;2024-01-30T06:07:26;9.10;;;5.85;;
52848;SDS011;38714;53.180;5.812;2024-01-30T06:09:51;13.23;;;5.50;;
52848;SDS011;38714;53.180;5.812;2024-01-30T06:12:17;11.43;;;5.82;;
52848;SDS011;38714;53.180;5.812;2024-01-30T06:14:42;11.88;;;6.57;;
52848;SDS011;38714;53.180;5.812;2024-01-30T06:17:08;14.32;;;6.35;;
52848;SDS011;38714;53.180;5.812;2024-01-30T06:19:34;7.88;;;4.78;;
52848;SDS011;38714;53.180;5.812;2024-01-30T06:22:00;7.13;;;4.85;;
52848;SDS011;38714;53.180;5.812;2024-01-30T06:24:26;5.95;;;4.57;;
52848;SDS011;38714;53.180;5.812;2024-01-30T06:26:52;11.00;;;6.13;;
52848;SDS011;38714;53.180;5.812;2024-01-30T06:29:18;6.22;;;4.78;;
52848;SDS011;38714;53.180;5.812;2024-01-30T06:31:43;9.90;;;5.57;;
52848;SDS011;38714;53.180;5.812;2024-01-30T06:34:09;12.18;;;5.97;;
52848;SDS011;38714;53.180;5.812;2024-01-30T06:36:36;10.98;;;6.75;;
52848;SDS011;38714;53.180;5.812;2024-01-30T06:39:02;6.82;;;4.75;;
52848;SDS011;38714;53.180;5.812;2024-01-30T06:41:29;8.05;;;4.82;;
52848;SDS011;38714;53.180;5.812;2024-01-30T06:43:55;10.07;;;5.78;;
52848;SDS011;38714;53.180;5.812;2024-01-30T06:46:20;7.65;;;4.55;;
52848;SDS011;38714;53.180;5.812;2024-01-30T06:48:46;13.88;;;5.57;;
52848;SDS011;38714;53.180;5.812;2024-01-30T06:51:12;11.50;;;5.75;;
52848;SDS011;38714;53.180;5.812;2024-01-30T06:53:38;7.38;;;5.40;;
52848;SDS011;38714;53.180;5.812;2024-01-30T06:56:03;6.47;;;4.88;;
52848;SDS011;38714;53.180;5.812;2024-01-30T06:58:29;11.80;;;7.00;;
52848;SDS011;38714;53.180;5.812;2024-01-30T07:00:55;8.98;;;5.95;;
52848;SDS011;38714;53.180;5.812;2024-01-30T07:03:21;10.93;;;7.20;;
52848;SDS011;38714;53.180;5.812;2024-01-30T07:05:47;9.02;;;6.13;;
52848;SDS011;38714;53.180;5.812;2024-01-30T07:08:13;9.07;;;5.30;;
52848;SDS011;38714;53.180;5.812;2024-01-30T07:10:38;9.70;;;7.15;;
52848;SDS011;38714;53.180;5.812;2024-01-30T07:13:04;9.70;;;6.47;;
52848;SDS011;38714;53.180;5.812;2024-01-30T07:15:30;10.27;;;5.60;;
52848;SDS011;38714;53.180;5.812;2024-01-30T07:17:56;11.98;;;5.65;;
52848;SDS011;38714;53.180;5.812;2024-01-30T07:20:22;8.85;;;5.65;;
52848;SDS011;38714;53.180;5.812;2024-01-30T07:22:47;10.68;;;5.18;;
52848;SDS011;38714;53.180;5.812;2024-01-30T07:25:13;9.07;;;5.35;;
52848;SDS011;38714;53.180;5.812;2024-01-30T07:27:39;10.63;;;6.20;;
52848;SDS011;38714;53.180;5.812;2024-01-30T07:30:05;10.68;;;5.00;;
52848;SDS011;38714;53.180;5.812;2024-01-30T07:32:31;7.32;;;5.53;;
52848;SDS011;38714;53.180;5.812;2024-01-30T07:34:57;14.68;;;6.78;;
52848;SDS011;38714;53.180;5.812;2024-01-30T07:37:22;11.95;;;7.03;;
52848;SDS011;38714;53.180;5.812;2024-01-30T07:39:48;13.25;;;5.30;;
52848;SDS011;38714;53.180;5.812;2024-01-30T07:42:13;8.55;;;4.78;;
52848;SDS011;38714;53.180;5.812;2024-01-30T07:44:39;8.05;;;5.38;;
52848;SDS011;38714;53.180;5.812;2024-01-30T07:47:04;6.88;;;5.32;;
52848;SDS011;38714;53.180;5.812;2024-01-30T07:49:30;9.77;;;6.53;;
52848;SDS011;38714;53.180;5.812;2024-01-30T07:51:57;7.07;;;5.82;;
52848;SDS011;38714;53.180;5.812;2024-01-30T07:54:22;8.70;;;5.07;;
52848;SDS011;38714;53.180;5.812;2024-01-30T07:56:49;15.77;;;5.95;;
52848;SDS011;38714;53.180;5.812;2024-01-30T07:59:14;10.48;;;5.65;;
52848;SDS011;38714;53.180;5.812;2024-01-30T08:01:40;8.35;;;5.32;;
52848;SDS011;38714;53.180;5.812;2024-01-30T08:04:06;9.98;;;4.75;;
52848;SDS011;38714;53.180;5.812;2024-01-30T08:06:31;10.00;;;6.35;;
52848;SDS011;38714;53.180;5.812;2024-01-30T08:08:57;9.38;;;6.00;;
52848;SDS011;38714;53.180;5.812;2024-01-30T08:11:24;9.02;;;6.65;;
52848;SDS011;38714;53.180;5.812;2024-01-30T08:13:53;10.48;;;6.50;;
52848;SDS011;38714;53.180;5.812;2024-01-30T08:16:19;9.88;;;6.10;;
52848;SDS011;38714;53.180;5.812;2024-01-30T08:18:45;7.45;;;5.25;;
52848;SDS011;38714;53.180;5.812;2024-01-30T08:21:10;10.23;;;6.63;;
52848;SDS011;38714;53.180;5.812;2024-01-30T08:23:37;11.18;;;5.60;;
52848;SDS011;38714;53.180;5.812;2024-01-30T08:26:04;15.18;;;6.13;;
52848;SDS011;38714;53.180;5.812;2024-01-30T08:28:30;9.73;;;5.82;;
52848;SDS011;38714;53.180;5.812;2024-01-30T08:30:55;12.98;;;7.03;;
52848;SDS011;38714;53.180;5.812;2024-01-30T08:33:21;9.18;;;6.55;;
52848;SDS011;38714;53.180;5.812;2024-01-30T08:35:46;11.40;;;4.85;;
52848;SDS011;38714;53.180;5.812;2024-01-30T08:38:12;10.18;;;6.00;;
52848;SDS011;38714;53.180;5.812;2024-01-30T08:40:38;11.52;;;7.13;;
52848;SDS011;38714;53.180;5.812;2024-01-30T08:43:04;10.13;;;4.93;;
52848;SDS011;38714;53.180;5.812;2024-01-30T08:45:29;9.10;;;5.18;;
52848;SDS011;38714;53.180;5.812;2024-01-30T08:47:55;8.27;;;4.63;;
52848;SDS011;38714;53.180;5.812;2024-01-30T08:50:22;10.30;;;6.03;;
52848;SDS011;38714;53.180;5.812;2024-01-30T08:52:47;10.43;;;5.63;;
52848;SDS011;38714;53.180;5.812;2024-01-30T08:55:13;10.43;;;5.78;;
52848;SDS011;38714;53.180;5.812;2024-01-30T08:57:39;9.02;;;5.38;;
52848;SDS011;38714;53.180;5.812;2024-01-30T09:00:05;9.77;;;5.75;;
52848;SDS011;38714;53.180;5.812;2024-01-30T09:02:32;13.48;;;6.07;;
52848;SDS011;38714;53.180;5.812;2024-01-30T09:04:59;6.88;;;4.50;;
52848;SDS011;38714;53.180;5.812;2024-01-30T09:07:24;11.63;;;6.93;;
52848;SDS011;38714;53.180;5.812;2024-01-30T09:09:50;11.98;;;6.72;;
52848;SDS011;38714;53.180;5.812;2024-01-30T09:12:15;10.98;;;4.63;;
52848;SDS011;38714;53.180;5.812;2024-01-30T09:14:41;17.83;;;6.20;;
52848;SDS011;38714;53.180;5.812;2024-01-30T09:17:07;16.38;;;6.53;;
52848;SDS011;38714;53.180;5.812;2024-01-30T09:19:33;11.75;;;6.80;;
52848;SDS011;38714;53.180;5.812;2024-01-30T09:21:58;15.13;;;6.93;;
52848;SDS011;38714;53.180;5.812;2024-01-30T09:24:25;13.43;;;5.70;;
52848;SDS011;38714;53.180;5.812;2024-01-30T09:26:51;8.68;;;5.57;;
52848;SDS011;38714;53.180;5.812;2024-01-30T09:29:17;13.57;;;5.82;;
52848;SDS011;38714;53.180;5.812;2024-01-30T09:31:43;11.20;;;6.47;;
52848;SDS011;38714;53.180;5.812;2024-01-30T09:34:10;12.80;;;6.70;;
52848;SDS011;38714;53.180;5.812;2024-01-30T09:36:36;9.93;;;5.88;;
52848;SDS011;38714;53.180;5.812;2024-01-30T09:39:01;12.52;;;7.47;;
52848;SDS011;38714;53.180;5.812;2024-01-30T09:41:27;14.85;;;6.25;;
52848;SDS011;38714;53.180;5.812;2024-01-30T09:43:53;13.93;;;6.82;;
52848;SDS011;38714;53.180;5.812;2024-01-30T09:46:19;11.57;;;5.13;;
52848;SDS011;38714;53.180;5.812;2024-01-30T09:48:48;11.45;;;5.50;;
52848;SDS011;38714;53.180;5.812;2024-01-30T09:51:14;10.73;;;6.22;;
52848;SDS011;38714;53.180;5.812;2024-01-30T09:53:42;8.45;;;4.53;;
52848;SDS011;38714;53.180;5.812;2024-01-30T09:56:09;10.57;;;5.28;;
52848;SDS011;38714;53.180;5.812;2024-01-30T09:58:34;8.93;;;5.10;;
52848;SDS011;38714;53.180;5.812;2024-01-30T10:01:00;14.98;;;6.38;;
52848;SDS011;38714;53.180;5.812;2024-01-30T10:03:25;7.35;;;4.50;;
52848;SDS011;38714;53.180;5.812;2024-01-30T10:05:52;9.57;;;5.43;;
52848;SDS011;38714;53.180;5.812;2024-01-30T10:08:18;10.38;;;5.28;;
52848;SDS011;38714;53.180;5.812;2024-01-30T10:10:47;8.95;;;5.18;;
52848;SDS011;38714;53.180;5.812;2024-01-30T10:13:14;8.68;;;4.45;;
52848;SDS011;38714;53.180;5.812;2024-01-30T10:15:41;7.32;;;4.18;;
52848;SDS011;38714;53.180;5.812;2024-01-30T10:18:08;4.80;;;3.60;;
52848;SDS011;38714;53.180;5.812;2024-01-30T10:20:35;9.65;;;5.40;;
52848;SDS011;38714;53.180;5.812;2024-01-30T10:23:01;9.68;;;4.20;;
52848;SDS011;38714;53.180;5.812;2024-01-30T10:25:27;7.78;;;4.20;;
52848;SDS011;38714;53.180;5.812;2024-01-30T10:27:55;7.93;;;3.22;;
52848;SDS011;38714;53.180;5.812;2024-01-30T10:30:21;6.53;;;4.20;;
52848;SDS011;38714;53.180;5.812;2024-01-30T10:32:47;4.28;;;3.22;;
52848;SDS011;38714;53.180;5.812;2024-01-30T10:35:13;7.28;;;4.32;;
52848;SDS011;38714;53.180;5.812;2024-01-30T10:37:39;5.15;;;2.85;;
52848;SDS011;38714;53.180;5.812;2024-01-30T10:40:05;8.20;;;3.17;;
52848;SDS011;38714;53.180;5.812;2024-01-30T10:42:33;12.50;;;3.47;;
52848;SDS011;38714;53.180;5.812;2024-01-30T10:45:34;9.07;;;2.85;;
52848;SDS011;38714;53.180;5.812;2024-01-30T10:47:54;14.00;;;4.07;;
52848;SDS011;38714;53.180;5.812;2024-01-30T10:50:24;6.13;;;2.75;;
52848;SDS011;38714;53.180;5.812;2024-01-30T10:52:50;4.80;;;1.52;;
52848;SDS011;38714;53.180;5.812;2024-01-30T10:55:16;5.78;;;1.45;;
52848;SDS011;38714;53.180;5.812;2024-01-30T10:57:43;3.53;;;1.52;;
52848;SDS011;38714;53.180;5.812;2024-01-30T11:00:09;2.75;;;1.52;;
52848;SDS011;38714;53.180;5.812;2024-01-30T11:02:41;1.40;;;1.15;;
52848;SDS011;38714;53.180;5.812;2024-01-30T11:05:09;1.00;;;0.88;;
52848;SDS011;38714;53.180;5.812;2024-01-30T11:07:34;2.22;;;0.60;;
52848;SDS011;38714;53.180;5.812;2024-01-30T11:10:03;1.27;;;0.75;;
52848;SDS011;38714;53.180;5.812;2024-01-30T11:12:31;2.75;;;1.20;;
52848;SDS011;38714;53.180;5.812;2024-01-30T11:15:04;1.92;;;1.38;;
52848;SDS011;38714;53.180;5.812;2024-01-30T11:20:26;4.78;;;1.40;;
52848;SDS011;38714;53.180;5.812;2024-01-30T11:22:57;2.35;;;0.90;;
52848;SDS011;38714;53.180;5.812;2024-01-30T11:25:23;2.17;;;1.45;;
52848;SDS011;38714;53.180;5.812;2024-01-30T11:27:51;1.15;;;0.60;;
52848;SDS011;38714;53.180;5.812;2024-01-30T11:30:25;1.70;;;0.90;;
52848;SDS011;38714;53.180;5.812;2024-01-30T11:32:58;1.00;;;0.80;;
52848;SDS011;38714;53.180;5.812;2024-01-30T11:35:34;1.05;;;0.52;;
52848;SDS011;38714;53.180;5.812;2024-01-30T11:38:10;1.48;;;0.80;;
52848;SDS011;38714;53.180;5.812;2024-01-30T11:40:39;1.00;;;0.75;;
52848;SDS011;38714;53.180;5.812;2024-01-30T11:43:05;3.90;;;0.88;;
52848;SDS011;38714;53.180;5.812;2024-01-30T11:45:33;2.55;;;1.00;;
52848;SDS011;38714;53.180;5.812;2024-01-30T11:48:00;0.82;;;0.77;;
52848;SDS011;38714;53.180;5.812;2024-01-30T11:50:28;1.20;;;0.68;;
52848;SDS011;38714;53.180;5.812;2024-01-30T11:52:58;1.38;;;0.98;;
52848;SDS011;38714;53.180;5.812;2024-01-30T11:55:25;3.72;;;0.98;;
52848;SDS011;38714;53.180;5.812;2024-01-30T11:57:51;2.78;;;1.10;;
52848;SDS011;38714;53.180;5.812;2024-01-30T12:00:20;1.92;;;1.20;;
52848;SDS011;38714;53.180;5.812;2024-01-30T12:02:52;1.60;;;1.10;;
52848;SDS011;38714;53.180;5.812;2024-01-30T12:05:22;2.35;;;0.65;;
52848;SDS011;38714;53.180;5.812;2024-01-30T12:07:49;3.05;;;1.00;;
52848;SDS011;38714;53.180;5.812;2024-01-30T12:10:14;2.30;;;0.73;;
52848;SDS011;38714;53.180;5.812;2024-01-30T12:12:45;3.05;;;1.05;;
52848;SDS011;38714;53.180;5.812;2024-01-30T12:15:14;5.93;;;1.33;;
52848;SDS011;38714;53.180;5.812;2024-01-30T12:17:41;2.20;;;0.70;;
52848;SDS011;38714;53.180;5.812;2024-01-30T12:20:07;2.47;;;1.52;;
52848;SDS011;38714;53.180;5.812;2024-01-30T12:22:44;1.05;;;0.60;;
52848;SDS011;38714;53.180;5.812;2024-01-30T12:25:15;1.50;;;0.52;;
52848;SDS011;38714;53.180;5.812;2024-01-30T12:27:46;1.15;;;0.77;;
52848;SDS011;38714;53.180;5.812;2024-01-30T12:30:16;1.65;;;0.57;;
52848;SDS011;38714;53.180;5.812;2024-01-30T12:32:45;2.83;;;1.65;;
52848;SDS011;38714;53.180;5.812;2024-01-30T12:35:16;2.53;;;0.45;;
52848;SDS011;38714;53.180;5.812;2024-01-30T12:37:44;2.58;;;1.10;;
52848;SDS011;38714;53.180;5.812;2024-01-30T12:40:11;1.23;;;1.00;;
52848;SDS011;38714;53.180;5.812;2024-01-30T12:42:43;4.85;;;1.63;;
52848;SDS011;38714;53.180;5.812;2024-01-30T12:45:13;1.10;;;1.00;;
52848;SDS011;38714;53.180;5.812;2024-01-30T12:47:40;1.83;;;1.33;;
52848;SDS011;38714;53.180;5.812;2024-01-30T12:50:06;1.95;;;1.05;;
52848;SDS011;38714;53.180;5.812;2024-01-30T12:52:32;1.02;;;0.60;;
52848;SDS011;38714;53.180;5.812;2024-01-30T12:54:58;3.38;;;0.85;;
52848;SDS011;38714;53.180;5.812;2024-01-30T12:57:23;1.33;;;0.80;;
52848;SDS011;38714;53.180;5.812;2024-01-30T12:59:49;4.85;;;0.93;;
52848;SDS011;38714;53.180;5.812;2024-01-30T13:02:15;4.93;;;0.68;;
52848;SDS011;38714;53.180;5.812;2024-01-30T13:04:41;1.75;;;0.63;;
52848;SDS011;38714;53.180;5.812;2024-01-30T13:07:07;19.35;;;1.10;;
52848;SDS011;38714;53.180;5.812;2024-01-30T13:09:32;2.60;;;0.75;;
52848;SDS011;38714;53.180;5.812;2024-01-30T13:11:58;1.77;;;0.50;;
52848;SDS011;38714;53.180;5.812;2024-01-30T13:14:25;1.25;;;0.40;;
52848;SDS011;38714;53.180;5.812;2024-01-30T13:16:51;0.98;;;0.80;;
52848;SDS011;38714;53.180;5.812;2024-01-30T13:19:17;1.23;;;0.90;;
52848;SDS011;38714;53.180;5.812;2024-01-30T13:21:42;2.33;;;0.70;;
52848;SDS011;38714;53.180;5.812;2024-01-30T13:24:08;2.85;;;0.52;;
52848;SDS011;38714;53.180;5.812;2024-01-30T13:26:34;1.05;;;0.93;;
52848;SDS011;38714;53.180;5.812;2024-01-30T13:29:00;3.22;;;0.90;;
52848;SDS011;38714;53.180;5.812;2024-01-30T13:31:26;3.97;;;1.15;;
52848;SDS011;38714;53.180;5.812;2024-01-30T13:33:52;1.48;;;1.00;;
52848;SDS011;38714;53.180;5.812;2024-01-30T13:36:18;1.38;;;1.10;;
52848;SDS011;38714;53.180;5.812;2024-01-30T13:38:44;6.30;;;1.58;;
52848;SDS011;38714;53.180;5.812;2024-01-30T13:41:09;1.95;;;0.85;;
52848;SDS011;38714;53.180;5.812;2024-01-30T13:43:35;5.43;;;1.58;;
52848;SDS011;38714;53.180;5.812;2024-01-30T13:46:01;1.48;;;0.93;;
52848;SDS011;38714;53.180;5.812;2024-01-30T13:48:26;1.60;;;1.00;;
52848;SDS011;38714;53.180;5.812;2024-01-30T13:50:52;1.13;;;0.73;;
52848;SDS011;38714;53.180;5.812;2024-01-30T13:53:18;3.80;;;0.73;;
52848;SDS011;38714;53.180;5.812;2024-01-30T13:55:44;4.43;;;1.15;;
52848;SDS011;38714;53.180;5.812;2024-01-30T13:58:10;1.95;;;1.25;;
52848;SDS011;38714;53.180;5.812;2024-01-30T14:00:35;4.60;;;1.02;;
52848;SDS011;38714;53.180;5.812;2024-01-30T14:03:01;2.03;;;0.85;;
52848;SDS011;38714;53.180;5.812;2024-01-30T14:05:28;2.58;;;1.02;;
52848;SDS011;38714;53.180;5.812;2024-01-30T14:07:53;2.50;;;1.27;;
52848;SDS011;38714;53.180;5.812;2024-01-30T14:10:20;4.97;;;1.23;;
52848;SDS011;38714;53.180;5.812;2024-01-30T14:12:45;0.90;;;0.55;;
52848;SDS011;38714;53.180;5.812;2024-01-30T14:15:13;2.53;;;1.17;;
52848;SDS011;38714;53.180;5.812;2024-01-30T14:17:43;5.07;;;1.45;;
52848;SDS011;38714;53.180;5.812;2024-01-30T14:20:10;4.28;;;1.73;;
52848;SDS011;38714;53.180;5.812;2024-01-30T14:22:36;0.82;;;0.80;;
52848;SDS011;38714;53.180;5.812;2024-01-30T14:25:01;2.17;;;0.75;;
52848;SDS011;38714;53.180;5.812;2024-01-30T14:27:30;2.72;;;1.85;;
52848;SDS011;38714;53.180;5.812;2024-01-30T14:29:56;1.08;;;0.93;;
52848;SDS011;38714;53.180;5.812;2024-01-30T14:32:23;1.35;;;0.73;;
52848;SDS011;38714;53.180;5.812;2024-01-30T14:34:49;1.83;;;0.80;;
52848;SDS011;38714;53.180;5.812;2024-01-30T14:37:18;1.17;;;0.90;;
52848;SDS011;38714;53.180;5.812;2024-01-30T14:39:45;1.63;;;0.90;;
52848;SDS011;38714;53.180;5.812;2024-01-30T14:42:10;1.10;;;0.65;;